sensor_id;sensor_type;location;lat;lon;timestamp;pressure;altitude;pressure_sealevel;temperature;humidity
9893;BME280;4985;49.092;8.542;2023-05-31T00:02:06;99695.78;;;24.08;45.52
9893;BME280;4985;49.092;8.542;2023-05-31T00:04:32;99694.97;;;24.07;45.55
9893;BME280;4985;49.092;8.542;2023-05-31T00:07:00;99697.66;;;24.07;45.55
9893;BME280;4985;49.092;8.542;2023-05-31T00:09:27;99696.84;;;24.07;45.57
9893;BME280;4985;49.092;8.542;2023-05-31T00:11:54;99703.84;;;24.08;45.57
9893;BME280;4985;49.092;8.542;2023-05-31T00:14:21;99704.91;;;24.07;45.57
9893;BME280;4985;49.092;8.542;2023-05-31T00:16:47;99698.72;;;24.06;45.58
9893;BME280;4985;49.092;8.542;2023-05-31T00:19:14;99690.91;;;24.05;45.58
9893;BME280;4985;49.092;8.542;2023-05-31T00:21:43;99692.53;;;24.06;45.58
9893;BME280;4985;49.092;8.542;2023-05-31T00:24:11;99680.63;;;24.02;45.59
9893;BME280;4985;49.092;8.542;2023-05-31T00:26:38;99690.06;;;24.04;45.60
9893;BME280;4985;49.092;8.542;2023-05-31T00:29:05;99692.78;;;24.04;45.60
9893;BME280;4985;49.092;8.542;2023-05-31T00:31:32;99690.91;;;24.05;45.60
9893;BME280;4985;49.092;8.542;2023-05-31T00:33:58;99696.28;;;24.05;45.61
9893;BME280;4985;49.092;8.542;2023-05-31T00:36:25;99687.63;;;24.03;45.61
9893;BME280;4985;49.092;8.542;2023-05-31T00:38:52;99694.66;;;24.04;45.61
9893;BME280;4985;49.092;8.542;2023-05-31T00:41:20;99691.13;;;24.03;45.63
9893;BME280;4985;49.092;8.542;2023-05-31T00:43:47;99693.00;;;24.03;45.62
9893;BME280;4985;49.092;8.542;2023-05-31T00:46:22;99686.81;;;24.02;45.64
9893;BME280;4985;49.092;8.542;2023-05-31T00:48:51;99686.00;;;24.02;45.63
9893;BME280;4985;49.092;8.542;2023-05-31T00:51:18;99691.38;;;24.02;45.66
9893;BME280;4985;49.092;8.542;2023-05-31T00:53:45;99683.53;;;24.00;45.65
9893;BME280;4985;49.092;8.542;2023-05-31T00:56:13;99692.41;;;24.01;45.67
9893;BME280;4985;49.092;8.542;2023-05-31T00:58:41;99694.28;;;24.00;45.67
9893;BME280;4985;49.092;8.542;2023-05-31T01:01:08;99688.09;;;24.00;45.68
9893;BME280;4985;49.092;8.542;2023-05-31T01:03:36;99690.78;;;24.00;45.67
9893;BME280;4985;49.092;8.542;2023-05-31T01:06:04;99688.09;;;24.00;45.66
9893;BME280;4985;49.092;8.542;2023-05-31T01:08:31;99693.47;;;24.00;45.67
9893;BME280;4985;49.092;8.542;2023-05-31T01:11:02;99681.09;;;23.99;45.68
9893;BME280;4985;49.092;8.542;2023-05-31T01:13:38;99689.16;;;23.99;45.68
9893;BME280;4985;49.092;8.542;2023-05-31T01:16:12;99683.78;;;23.99;45.69
9893;BME280;4985;49.092;8.542;2023-05-31T01:18:44;99682.97;;;23.98;45.72
9893;BME280;4985;49.092;8.542;2023-05-31T01:21:16;99680.50;;;23.97;45.72
9893;BME280;4985;49.092;8.542;2023-05-31T01:23:54;99686.94;;;23.96;45.74
9893;BME280;4985;49.092;8.542;2023-05-31T01:26:35;99690.69;;;23.95;45.76
9893;BME280;4985;49.092;8.542;2023-05-31T01:29:04;99689.88;;;23.94;45.77
9893;BME280;4985;49.092;8.542;2023-05-31T01:31:34;99692.00;;;23.92;45.78
9893;BME280;4985;49.092;8.542;2023-05-31T01:34:03;99686.63;;;23.92;45.79
9893;BME280;4985;49.092;8.542;2023-05-31T01:36:30;99683.38;;;23.90;45.79
9893;BME280;4985;49.092;8.542;2023-05-31T01:38:57;99693.06;;;23.91;45.78
9893;BME280;4985;49.092;8.542;2023-05-31T01:41:26;99690.13;;;23.93;45.79
9893;BME280;4985;49.092;8.542;2023-05-31T01:43:56;99692.25;;;23.91;45.82
9893;BME280;4985;49.092;8.542;2023-05-31T01:46:23;99700.31;;;23.91;45.84
9893;BME280;4985;49.092;8.542;2023-05-31T01:48:52;99704.88;;;23.90;45.85
9893;BME280;4985;49.092;8.542;2023-05-31T01:51:19;99697.03;;;23.89;45.87
9893;BME280;4985;49.092;8.542;2023-05-31T01:53:46;99690.50;;;23.85;45.89
9893;BME280;4985;49.092;8.542;2023-05-31T01:56:14;99695.41;;;23.88;45.90
9893;BME280;4985;49.092;8.542;2023-05-31T01:58:41;99695.41;;;23.88;45.90
9893;BME280;4985;49.092;8.542;2023-05-31T02:01:14;99696.22;;;23.88;45.91
9893;BME280;4985;49.092;8.542;2023-05-31T02:03:42;99701.84;;;23.87;45.92
9893;BME280;4985;49.092;8.542;2023-05-31T02:06:09;99697.50;;;23.86;45.94
9893;BME280;4985;49.092;8.542;2023-05-31T02:08:38;99699.16;;;23.87;45.94
9893;BME280;4985;49.092;8.542;2023-05-31T02:11:05;99701.84;;;23.87;45.92
9893;BME280;4985;49.092;8.542;2023-05-31T02:13:33;99693.78;;;23.87;45.92
9893;BME280;4985;49.092;8.542;2023-05-31T02:15:59;99696.47;;;23.87;45.91
9893;BME280;4985;49.092;8.542;2023-05-31T02:18:27;99693.78;;;23.87;45.90
9893;BME280;4985;49.092;8.542;2023-05-31T02:20:54;99693.53;;;23.88;45.88
9893;BME280;4985;49.092;8.542;2023-05-31T02:23:21;99690.50;;;23.85;45.87
9893;BME280;4985;49.092;8.542;2023-05-31T02:25:48;99700.78;;;23.88;45.86
9893;BME280;4985;49.092;8.542;2023-05-31T02:28:16;99700.78;;;23.88;45.85
9893;BME280;4985;49.092;8.542;2023-05-31T02:30:53;99695.41;;;23.88;45.84
9893;BME280;4985;49.092;8.542;2023-05-31T02:33:20;99697.50;;;23.86;45.83
9893;BME280;4985;49.092;8.542;2023-05-31T02:35:48;99696.22;;;23.88;45.80
9893;BME280;4985;49.092;8.542;2023-05-31T02:38:15;99695.41;;;23.88;45.79
9893;BME280;4985;49.092;8.542;2023-05-31T02:40:41;99686.50;;;23.87;45.77
9893;BME280;4985;49.092;8.542;2023-05-31T02:43:08;99693.78;;;23.87;45.76
9893;BME280;4985;49.092;8.542;2023-05-31T02:45:35;99694.81;;;23.86;45.76
9893;BME280;4985;49.092;8.542;2023-05-31T02:48:02;99697.50;;;23.86;45.77
9893;BME280;4985;49.092;8.542;2023-05-31T02:50:30;99698.56;;;23.85;45.78
9893;BME280;4985;49.092;8.542;2023-05-31T02:52:59;99707.44;;;23.85;45.78
9893;BME280;4985;49.092;8.542;2023-05-31T02:55:26;99692.88;;;23.81;45.78
9893;BME280;4985;49.092;8.542;2023-05-31T02:57:52;99695.87;;;23.85;45.78
9893;BME280;4985;49.092;8.542;2023-05-31T03:00:19;99695.87;;;23.85;45.77
9893;BME280;4985;49.092;8.542;2023-05-31T03:02:46;99705.81;;;23.84;45.76
9893;BME280;4985;49.092;8.542;2023-05-31T03:05:12;99699.62;;;23.84;45.75
9893;BME280;4985;49.092;8.542;2023-05-31T03:07:39;99698.81;;;23.83;45.76
9893;BME280;4985;49.092;8.542;2023-05-31T03:10:08;99700.69;;;23.83;45.74
9893;BME280;4985;49.092;8.542;2023-05-31T03:12:35;99699.06;;;23.81;45.74
9893;BME280;4985;49.092;8.542;2023-05-31T03:15:02;99700.94;;;23.81;45.75
9893;BME280;4985;49.092;8.542;2023-05-31T03:17:29;99700.12;;;23.80;45.77
9893;BME280;4985;49.092;8.542;2023-05-31T03:19:56;99700.12;;;23.80;45.77
9893;BME280;4985;49.092;8.542;2023-05-31T03:22:23;99692.28;;;23.79;45.78
9893;BME280;4985;49.092;8.542;2023-05-31T03:24:50;99699.56;;;23.78;45.79
9893;BME280;4985;49.092;8.542;2023-05-31T03:27:18;99701.38;;;23.78;45.82
9893;BME280;4985;49.092;8.542;2023-05-31T03:29:44;99704.31;;;23.76;45.83
9893;BME280;4985;49.092;8.542;2023-05-31T03:32:11;99709.69;;;23.76;45.84
9893;BME280;4985;49.092;8.542;2023-05-31T03:34:38;99713.44;;;23.75;45.85
9893;BME280;4985;49.092;8.542;2023-05-31T03:37:04;99712.63;;;23.75;45.87
9893;BME280;4985;49.092;8.542;2023-05-31T03:39:31;99709.94;;;23.75;45.89
9893;BME280;4985;49.092;8.542;2023-05-31T03:41:59;99710.19;;;23.73;45.88
9893;BME280;4985;49.092;8.542;2023-05-31T03:44:27;99714.75;;;23.73;45.89
9893;BME280;4985;49.092;8.542;2023-05-31T03:46:54;99713.94;;;23.72;45.89
9893;BME280;4985;49.092;8.542;2023-05-31T03:49:20;99714.75;;;23.73;45.90
9893;BME280;4985;49.092;8.542;2023-05-31T03:51:47;99713.13;;;23.72;45.91
9893;BME280;4985;49.092;8.542;2023-05-31T03:54:14;99714.97;;;23.71;45.91
9893;BME280;4985;49.092;8.542;2023-05-31T03:56:40;99721.41;;;23.70;45.91
9893;BME280;4985;49.092;8.542;2023-05-31T03:59:08;99712.78;;;23.68;45.94
9893;BME280;4985;49.092;8.542;2023-05-31T04:01:36;99718.97;;;23.69;45.96
9893;BME280;4985;49.092;8.542;2023-05-31T04:04:02;99719.22;;;23.67;45.98
9893;BME280;4985;49.092;8.542;2023-05-31T04:06:29;99712.19;;;23.66;46.02
9893;BME280;4985;49.092;8.542;2023-05-31T04:08:56;99723.16;;;23.65;46.04
9893;BME280;4985;49.092;8.542;2023-05-31T04:11:22;99723.41;;;23.63;46.06
9893;BME280;4985;49.092;8.542;2023-05-31T04:13:49;99719.91;;;23.63;46.10
9893;BME280;4985;49.092;8.542;2023-05-31T04:16:15;99729.84;;;23.62;46.11
9893;BME280;4985;49.092;8.542;2023-05-31T04:18:43;99722.84;;;23.61;46.12
9893;BME280;4985;49.092;8.542;2023-05-31T04:21:10;99726.59;;;23.60;46.13
9893;BME280;4985;49.092;8.542;2023-05-31T04:23:37;99730.09;;;23.61;46.15
9893;BME280;4985;49.092;8.542;2023-05-31T04:26:04;99734.66;;;23.60;46.13
9893;BME280;4985;49.092;8.542;2023-05-31T04:28:31;99726.59;;;23.60;46.14
9893;BME280;4985;49.092;8.542;2023-05-31T04:30:58;99726.59;;;23.60;46.13
9893;BME280;4985;49.092;8.542;2023-05-31T04:33:26;99734.87;;;23.59;46.14
9893;BME280;4985;49.092;8.542;2023-05-31T04:35:56;99736.75;;;23.58;46.14
9893;BME280;4985;49.092;8.542;2023-05-31T04:38:23;99737.78;;;23.57;46.18
9893;BME280;4985;49.092;8.542;2023-05-31T04:40:52;99745.84;;;23.57;46.17
9893;BME280;4985;49.092;8.542;2023-05-31T04:43:19;99741.53;;;23.56;46.20
9893;BME280;4985;49.092;8.542;2023-05-31T04:45:46;99738.84;;;23.56;46.20
9893;BME280;4985;49.092;8.542;2023-05-31T04:48:14;99745.25;;;23.55;46.21
9893;BME280;4985;49.092;8.542;2023-05-31T04:50:42;99737.41;;;23.53;46.23
9893;BME280;4985;49.092;8.542;2023-05-31T04:53:10;99742.78;;;23.53;46.24
9893;BME280;4985;49.092;8.542;2023-05-31T04:55:36;99736.59;;;23.53;46.25
9893;BME280;4985;49.092;8.542;2023-05-31T04:58:03;99736.59;;;23.53;46.26
9893;BME280;4985;49.092;8.542;2023-05-31T05:00:30;99741.97;;;23.53;46.26
9893;BME280;4985;49.092;8.542;2023-05-31T05:02:57;99738.47;;;23.52;46.26
9893;BME280;4985;49.092;8.542;2023-05-31T05:05:24;99741.97;;;23.53;46.27
9893;BME280;4985;49.092;8.542;2023-05-31T05:07:51;99740.84;;;23.49;46.29
9893;BME280;4985;49.092;8.542;2023-05-31T05:10:19;99746.53;;;23.52;46.28
9893;BME280;4985;49.092;8.542;2023-05-31T05:12:46;99749.47;;;23.51;46.29
9893;BME280;4985;49.092;8.542;2023-05-31T05:15:12;99753.78;;;23.52;46.28
9893;BME280;4985;49.092;8.542;2023-05-31T05:17:39;99751.09;;;23.52;46.28
9893;BME280;4985;49.092;8.542;2023-05-31T05:20:07;99751.09;;;23.52;46.27
9893;BME280;4985;49.092;8.542;2023-05-31T05:22:35;99753.78;;;23.52;46.27
9893;BME280;4985;49.092;8.542;2023-05-31T05:25:02;99755.66;;;23.51;46.26
9893;BME280;4985;49.092;8.542;2023-05-31T05:27:30;99755.66;;;23.51;46.27
9893;BME280;4985;49.092;8.542;2023-05-31T05:29:56;99754.84;;;23.51;46.25
9893;BME280;4985;49.092;8.542;2023-05-31T05:32:23;99758.59;;;23.50;46.27
9893;BME280;4985;49.092;8.542;2023-05-31T05:34:50;99756.94;;;23.49;46.26
9893;BME280;4985;49.092;8.542;2023-05-31T05:37:16;99755.91;;;23.50;46.26
9893;BME280;4985;49.092;8.542;2023-05-31T05:39:43;99751.56;;;23.49;46.25
9893;BME280;4985;49.092;8.542;2023-05-31T05:42:09;99749.94;;;23.48;46.23
9893;BME280;4985;49.092;8.542;2023-05-31T05:44:38;99756.13;;;23.48;46.22
9893;BME280;4985;49.092;8.542;2023-05-31T05:47:05;99754.12;;;23.44;46.20
9893;BME280;4985;49.092;8.542;2023-05-31T05:49:32;99760.69;;;23.48;46.18
9893;BME280;4985;49.092;8.542;2023-05-31T05:51:59;99761.75;;;23.47;46.15
9893;BME280;4985;49.092;8.542;2023-05-31T05:54:26;99755.31;;;23.48;46.14
9893;BME280;4985;49.092;8.542;2023-05-31T05:56:52;99759.06;;;23.47;46.14
9893;BME280;4985;49.092;8.542;2023-05-31T05:59:19;99759.31;;;23.45;46.14
9893;BME280;4985;49.092;8.542;2023-05-31T06:01:47;99760.94;;;23.46;46.13
9893;BME280;4985;49.092;8.542;2023-05-31T06:04:13;99768.19;;;23.46;46.10
9893;BME280;4985;49.092;8.542;2023-05-31T06:06:40;99768.19;;;23.46;46.11
9893;BME280;4985;49.092;8.542;2023-05-31T06:09:07;99758.25;;;23.46;46.09
9893;BME280;4985;49.092;8.542;2023-05-31T06:11:33;99762.81;;;23.46;46.07
9893;BME280;4985;49.092;8.542;2023-05-31T06:14:00;99756.63;;;23.45;46.07
9893;BME280;4985;49.092;8.542;2023-05-31T06:16:26;99754.12;;;23.44;46.06
9893;BME280;4985;49.092;8.542;2023-05-31T06:18:54;99757.66;;;23.44;46.05
9893;BME280;4985;49.092;8.542;2023-05-31T06:21:21;99748.75;;;23.44;46.04
9893;BME280;4985;49.092;8.542;2023-05-31T06:23:47;99755.19;;;23.43;46.03
9893;BME280;4985;49.092;8.542;2023-05-31T06:26:14;99757.87;;;23.43;46.04
9893;BME280;4985;49.092;8.542;2023-05-31T06:28:40;99753.31;;;23.43;46.03
9893;BME280;4985;49.092;8.542;2023-05-31T06:31:07;99752.50;;;23.43;46.05
9893;BME280;4985;49.092;8.542;2023-05-31T06:33:34;99753.56;;;23.42;46.05
9893;BME280;4985;49.092;8.542;2023-05-31T06:36:03;99747.13;;;23.43;46.06
9893;BME280;4985;49.092;8.542;2023-05-31T06:38:29;99748.19;;;23.42;46.05
9893;BME280;4985;49.092;8.542;2023-05-31T06:40:56;99756.25;;;23.42;46.05
9893;BME280;4985;49.092;8.542;2023-05-31T06:43:22;99756.25;;;23.42;46.06
9893;BME280;4985;49.092;8.542;2023-05-31T06:45:50;99750.88;;;23.42;46.07
9893;BME280;4985;49.092;8.542;2023-05-31T06:48:16;99741.66;;;23.38;46.08
9893;BME280;4985;49.092;8.542;2023-05-31T06:50:43;99757.31;;;23.41;46.08
9893;BME280;4985;49.092;8.542;2023-05-31T06:53:11;99752.97;;;23.40;46.09
9893;BME280;4985;49.092;8.542;2023-05-31T06:55:38;99752.16;;;23.39;46.11
9893;BME280;4985;49.092;8.542;2023-05-31T06:58:05;99752.97;;;23.40;46.11
9893;BME280;4985;49.092;8.542;2023-05-31T07:00:32;99754.84;;;23.39;46.10
9893;BME280;4985;49.092;8.542;2023-05-31T07:02:59;99756.72;;;23.39;46.13
9893;BME280;4985;49.092;8.542;2023-05-31T07:05:25;99754.03;;;23.39;46.14
9893;BME280;4985;49.092;8.542;2023-05-31T07:07:52;99757.78;;;23.38;46.16
9893;BME280;4985;49.092;8.542;2023-05-31T07:10:20;99755.09;;;23.38;46.15
9893;BME280;4985;49.092;8.542;2023-05-31T07:12:46;99745.97;;;23.39;46.15
9893;BME280;4985;49.092;8.542;2023-05-31T07:15:13;99750.28;;;23.40;46.12
9893;BME280;4985;49.092;8.542;2023-05-31T07:17:40;99740.59;;;23.39;46.12
9893;BME280;4985;49.092;8.542;2023-05-31T07:20:08;99742.25;;;23.40;46.09
9893;BME280;4985;49.092;8.542;2023-05-31T07:22:34;99742.25;;;23.40;46.07
9893;BME280;4985;49.092;8.542;2023-05-31T07:25:01;99743.88;;;23.41;46.07
9893;BME280;4985;49.092;8.542;2023-05-31T07:27:30;99743.06;;;23.40;46.05
9893;BME280;4985;49.092;8.542;2023-05-31T07:29:56;99739.56;;;23.40;46.05
9893;BME280;4985;49.092;8.542;2023-05-31T07:32:23;99741.19;;;23.41;46.01
9893;BME280;4985;49.092;8.542;2023-05-31T07:34:50;99734.19;;;23.40;46.05
9893;BME280;4985;49.092;8.542;2023-05-31T07:37:16;99735.81;;;23.41;46.05
9893;BME280;4985;49.092;8.542;2023-05-31T07:39:43;99731.50;;;23.40;46.08
9893;BME280;4985;49.092;8.542;2023-05-31T07:42:10;99723.91;;;23.37;46.07
9893;BME280;4985;49.092;8.542;2023-05-31T07:44:39;99728.81;;;23.40;46.06
9893;BME280;4985;49.092;8.542;2023-05-31T07:47:06;99725.06;;;23.41;46.07
9893;BME280;4985;49.092;8.542;2023-05-31T07:49:33;99718.06;;;23.40;46.07
9893;BME280;4985;49.092;8.542;2023-05-31T07:52:00;99716.19;;;23.40;46.09
9893;BME280;4985;49.092;8.542;2023-05-31T07:54:26;99718.06;;;23.40;46.08
9893;BME280;4985;49.092;8.542;2023-05-31T07:56:53;99718.06;;;23.40;46.07
9893;BME280;4985;49.092;8.542;2023-05-31T07:59:20;99708.38;;;23.39;46.11
9893;BME280;4985;49.092;8.542;2023-05-31T08:01:48;99712.94;;;23.38;46.13
9893;BME280;4985;49.092;8.542;2023-05-31T08:04:15;99713.75;;;23.39;46.14
9893;BME280;4985;49.092;8.542;2023-05-31T08:06:42;99708.38;;;23.39;46.12
9893;BME280;4985;49.092;8.542;2023-05-31T08:09:08;99704.06;;;23.38;46.14
9893;BME280;4985;49.092;8.542;2023-05-31T08:11:35;99708.38;;;23.39;46.13
9893;BME280;4985;49.092;8.542;2023-05-31T08:14:02;99707.56;;;23.38;46.13
9893;BME280;4985;49.092;8.542;2023-05-31T08:16:29;99708.59;;;23.37;46.13
9893;BME280;4985;49.092;8.542;2023-05-31T08:18:57;99699.72;;;23.37;46.13
9893;BME280;4985;49.092;8.542;2023-05-31T08:21:23;99705.09;;;23.37;46.16
9893;BME280;4985;49.092;8.542;2023-05-31T08:23:50;99699.72;;;23.37;46.15
9893;BME280;4985;49.092;8.542;2023-05-31T08:26:17;99690.28;;;23.34;46.11
9893;BME280;4985;49.092;8.542;2023-05-31T08:28:43;99701.38;;;23.38;46.12
9893;BME280;4985;49.092;8.542;2023-05-31T08:31:10;99697.63;;;23.39;46.10
9893;BME280;4985;49.092;8.542;2023-05-31T08:33:37;99697.63;;;23.39;46.10
9893;BME280;4985;49.092;8.542;2023-05-31T08:36:07;99698.44;;;23.39;46.11
9893;BME280;4985;49.092;8.542;2023-05-31T08:38:33;99697.63;;;23.39;46.11
9893;BME280;4985;49.092;8.542;2023-05-31T08:41:01;99696.81;;;23.38;46.11
9893;BME280;4985;49.092;8.542;2023-05-31T08:43:28;99701.38;;;23.38;46.16
9893;BME280;4985;49.092;8.542;2023-05-31T08:45:57;99696.00;;;23.38;46.15
9893;BME280;4985;49.092;8.542;2023-05-31T08:48:26;99692.25;;;23.39;46.09
9893;BME280;4985;49.092;8.542;2023-05-31T08:50:56;99686.53;;;23.35;46.06
9893;BME280;4985;49.092;8.542;2023-05-31T08:53:24;99686.06;;;23.38;46.05
9893;BME280;4985;49.092;8.542;2023-05-31T08:55:52;99685.25;;;23.38;46.04
9893;BME280;4985;49.092;8.542;2023-05-31T08:58:19;99674.50;;;23.38;46.09
9893;BME280;4985;49.092;8.542;2023-05-31T09:00:46;99677.44;;;23.36;46.05
9893;BME280;4985;49.092;8.542;2023-05-31T09:03:14;99674.50;;;23.38;46.03
9893;BME280;4985;49.092;8.542;2023-05-31T09:05:41;99676.13;;;23.39;46.00
9893;BME280;4985;49.092;8.542;2023-05-31T09:08:08;99673.44;;;23.39;46.00
9893;BME280;4985;49.092;8.542;2023-05-31T09:10:36;99674.25;;;23.39;45.98
9893;BME280;4985;49.092;8.542;2023-05-31T09:13:02;99673.19;;;23.40;45.95
9893;BME280;4985;49.092;8.542;2023-05-31T09:15:31;99675.88;;;23.40;45.94
9893;BME280;4985;49.092;8.542;2023-05-31T09:18:11;99670.75;;;23.39;45.96
9893;BME280;4985;49.092;8.542;2023-05-31T09:20:38;99665.37;;;23.39;45.99
9893;BME280;4985;49.092;8.542;2023-05-31T09:23:05;99673.44;;;23.39;45.97
9893;BME280;4985;49.092;8.542;2023-05-31T09:25:44;99677.19;;;23.38;45.99
9893;BME280;4985;49.092;8.542;2023-05-31T09:28:10;99669.12;;;23.38;45.97
9893;BME280;4985;49.092;8.542;2023-05-31T09:30:37;99669.12;;;23.38;45.97
9893;BME280;4985;49.092;8.542;2023-05-31T09:33:06;99667.50;;;23.37;45.97
9893;BME280;4985;49.092;8.542;2023-05-31T09:35:33;99661.06;;;23.38;45.96
9893;BME280;4985;49.092;8.542;2023-05-31T09:38:03;99670.75;;;23.39;45.96
9893;BME280;4985;49.092;8.542;2023-05-31T09:40:31;99673.44;;;23.39;45.96
9893;BME280;4985;49.092;8.542;2023-05-31T09:43:00;99667.50;;;23.37;45.98
9893;BME280;4985;49.092;8.542;2023-05-31T09:45:27;99672.63;;;23.38;45.96
9893;BME280;4985;49.092;8.542;2023-05-31T09:47:54;99669.94;;;23.38;45.98
9893;BME280;4985;49.092;8.542;2023-05-31T09:50:22;99666.19;;;23.39;45.96
9893;BME280;4985;49.092;8.542;2023-05-31T09:52:55;99663.50;;;23.39;45.98
9893;BME280;4985;49.092;8.542;2023-05-31T09:55:22;99659.19;;;23.38;46.00
9893;BME280;4985;49.092;8.542;2023-05-31T09:57:51;99661.06;;;23.38;46.00
9893;BME280;4985;49.092;8.542;2023-05-31T10:00:22;99645.75;;;23.38;46.00
9893;BME280;4985;49.092;8.542;2023-05-31T10:02:50;99652.19;;;23.37;46.04
9893;BME280;4985;49.092;8.542;2023-05-31T10:05:18;99648.69;;;23.37;46.04
9893;BME280;4985;49.092;8.542;2023-05-31T10:07:46;99647.62;;;23.38;46.05
9893;BME280;4985;49.092;8.542;2023-05-31T10:10:13;99649.25;;;23.39;46.04
9893;BME280;4985;49.092;8.542;2023-05-31T10:12:47;99658.13;;;23.39;46.02
9893;BME280;4985;49.092;8.542;2023-05-31T10:15:16;99654.62;;;23.39;46.03
9893;BME280;4985;49.092;8.542;2023-05-31T10:17:54;99661.06;;;23.38;46.07
9893;BME280;4985;49.092;8.542;2023-05-31T10:20:25;99651.37;;;23.37;46.07
9893;BME280;4985;49.092;8.542;2023-05-31T10:22:54;99658.37;;;23.38;46.06
9893;BME280;4985;49.092;8.542;2023-05-31T10:25:28;99650.09;;;23.39;46.04
9893;BME280;4985;49.092;8.542;2023-05-31T10:28:00;99650.09;;;23.39;46.03
9893;BME280;4985;49.092;8.542;2023-05-31T10:30:31;99643.91;;;23.39;46.04
9893;BME280;4985;49.092;8.542;2023-05-31T10:33:05;99650.31;;;23.38;46.06
9893;BME280;4985;49.092;8.542;2023-05-31T10:35:33;99654.62;;;23.39;46.06
9893;BME280;4985;49.092;8.542;2023-05-31T10:38:00;99644.13;;;23.37;46.07
9893;BME280;4985;49.092;8.542;2023-05-31T10:40:33;99655.69;;;23.38;46.08
9893;BME280;4985;49.092;8.542;2023-05-31T10:43:07;99644.94;;;23.38;46.09
9893;BME280;4985;49.092;8.542;2023-05-31T10:45:38;99639.81;;;23.36;46.11
9893;BME280;4985;49.092;8.542;2023-05-31T10:48:16;99639.00;;;23.36;46.13
9893;BME280;4985;49.092;8.542;2023-05-31T10:50:52;99633.63;;;23.36;46.14
9893;BME280;4985;49.092;8.542;2023-05-31T10:53:19;99647.06;;;23.36;46.13
9893;BME280;4985;49.092;8.542;2023-05-31T10:55:47;99637.94;;;23.37;46.12
9893;BME280;4985;49.092;8.542;2023-05-31T10:58:28;99629.88;;;23.37;46.12
9893;BME280;4985;49.092;8.542;2023-05-31T11:00:56;99628.25;;;23.36;46.12
9893;BME280;4985;49.092;8.542;2023-05-31T11:03:24;99628.25;;;23.36;46.14
9893;BME280;4985;49.092;8.542;2023-05-31T11:05:56;99621.25;;;23.35;46.14
9893;BME280;4985;49.092;8.542;2023-05-31T11:08:24;99628.25;;;23.36;46.15
9893;BME280;4985;49.092;8.542;2023-05-31T11:10:51;99621.25;;;23.35;46.17
9893;BME280;4985;49.092;8.542;2023-05-31T11:13:18;99617.97;;;23.33;46.16
9893;BME280;4985;49.092;8.542;2023-05-31T11:15:46;99627.19;;;23.37;46.18
9893;BME280;4985;49.092;8.542;2023-05-31T11:18:21;99636.31;;;23.36;46.17
9893;BME280;4985;49.092;8.542;2023-05-31T11:20:49;99621.25;;;23.35;46.17
9893;BME280;4985;49.092;8.542;2023-05-31T11:23:23;99619.37;;;23.35;46.19
9893;BME280;4985;49.092;8.542;2023-05-31T11:26:07;99626.63;;;23.35;46.21
9893;BME280;4985;49.092;8.542;2023-05-31T11:28:58;99617.75;;;23.34;46.22
9893;BME280;4985;49.092;8.542;2023-05-31T11:31:56;99618.56;;;23.35;46.24
9893;BME280;4985;49.092;8.542;2023-05-31T11:34:25;99623.94;;;23.35;46.25
9893;BME280;4985;49.092;8.542;2023-05-31T11:36:56;99602.44;;;23.35;46.25
9893;BME280;4985;49.092;8.542;2023-05-31T11:39:23;99609.44;;;23.36;46.25
9893;BME280;4985;49.092;8.542;2023-05-31T11:41:52;99617.50;;;23.36;46.25
9893;BME280;4985;49.092;8.542;2023-05-31T11:44:21;99605.72;;;23.37;46.23
9893;BME280;4985;49.092;8.542;2023-05-31T11:46:56;99597.66;;;23.37;46.22
9893;BME280;4985;49.092;8.542;2023-05-31T11:49:25;99608.41;;;23.37;46.22
9893;BME280;4985;49.092;8.542;2023-05-31T11:51:55;99612.97;;;23.36;46.24
9893;BME280;4985;49.092;8.542;2023-05-31T11:54:25;99605.72;;;23.37;46.23
9893;BME280;4985;49.092;8.542;2023-05-31T11:56:56;99600.09;;;23.38;46.20
9893;BME280;4985;49.092;8.542;2023-05-31T11:59:23;99595.53;;;23.39;46.18
9893;BME280;4985;49.092;8.542;2023-05-31T12:01:50;99595.53;;;23.39;46.18
9893;BME280;4985;49.092;8.542;2023-05-31T12:04:16;99603.59;;;23.39;46.18
9893;BME280;4985;49.092;8.542;2023-05-31T12:06:43;99590.16;;;23.39;46.17
9893;BME280;4985;49.092;8.542;2023-05-31T12:09:11;99595.53;;;23.39;46.17
9893;BME280;4985;49.092;8.542;2023-05-31T12:11:38;99595.53;;;23.39;46.20
9893;BME280;4985;49.092;8.542;2023-05-31T12:14:05;99578.59;;;23.38;46.20
9893;BME280;4985;49.092;8.542;2023-05-31T12:16:32;99580.22;;;23.39;46.20
9893;BME280;4985;49.092;8.542;2023-05-31T12:18:59;99570.31;;;23.40;46.19
9893;BME280;4985;49.092;8.542;2023-05-31T12:21:25;99574.63;;;23.41;46.18
9893;BME280;4985;49.092;8.542;2023-05-31T12:23:52;99570.31;;;23.40;46.19
9893;BME280;4985;49.092;8.542;2023-05-31T12:26:21;99575.69;;;23.40;46.18
9893;BME280;4985;49.092;8.542;2023-05-31T12:28:48;99577.31;;;23.41;46.17
9893;BME280;4985;49.092;8.542;2023-05-31T12:31:19;99570.88;;;23.42;46.17
9893;BME280;4985;49.092;8.542;2023-05-31T12:33:51;99568.19;;;23.42;46.16
9893;BME280;4985;49.092;8.542;2023-05-31T12:36:18;99560.38;;;23.40;46.18
9893;BME280;4985;49.092;8.542;2023-05-31T12:38:44;99561.19;;;23.41;46.21
9893;BME280;4985;49.092;8.542;2023-05-31T12:41:11;99560.94;;;23.42;46.18
9893;BME280;4985;49.092;8.542;2023-05-31T12:43:41;99558.25;;;23.42;46.18
9893;BME280;4985;49.092;8.542;2023-05-31T12:46:07;99554.75;;;23.42;46.19
9893;BME280;4985;49.092;8.542;2023-05-31T12:48:34;99555.56;;;23.42;46.20
9893;BME280;4985;49.092;8.542;2023-05-31T12:51:04;99552.06;;;23.42;46.21
9893;BME280;4985;49.092;8.542;2023-05-31T12:53:30;99547.50;;;23.42;46.21
9893;BME280;4985;49.092;8.542;2023-05-31T12:55:57;99562.56;;;23.43;46.21
9893;BME280;4985;49.092;8.542;2023-05-31T12:58:24;99547.50;;;23.42;46.22
9893;BME280;4985;49.092;8.542;2023-05-31T13:00:52;99546.69;;;23.42;46.23
9893;BME280;4985;49.092;8.542;2023-05-31T13:03:18;99550.19;;;23.42;46.25
9893;BME280;4985;49.092;8.542;2023-05-31T13:05:45;99553.69;;;23.43;46.25
9893;BME280;4985;49.092;8.542;2023-05-31T13:08:11;99566.91;;;23.44;46.24
9893;BME280;4985;49.092;8.542;2023-05-31T13:10:38;99551.59;;;23.45;46.22
9893;BME280;4985;49.092;8.542;2023-05-31T13:13:04;99551.59;;;23.45;46.23
9893;BME280;4985;49.092;8.542;2023-05-31T13:15:31;99553.22;;;23.46;46.23
9893;BME280;4985;49.092;8.542;2023-05-31T13:17:59;99554.88;;;23.47;46.23
9893;BME280;4985;49.092;8.542;2023-05-31T13:20:26;99537.13;;;23.46;46.23
9893;BME280;4985;49.092;8.542;2023-05-31T13:22:52;99547.88;;;23.46;46.24
9893;BME280;4985;49.092;8.542;2023-05-31T13:25:19;99540.38;;;23.48;46.24
9893;BME280;4985;49.092;8.542;2023-05-31T13:27:45;99532.31;;;23.48;46.24